Aérodrome :
LOGIN :

S'inscrire | Disclaimer

   EN    FR    IT 

 










Légende :    VFR   VFR Marginal   IFR   IFR Intensif   IFR Très Intensif
Visi : 
Plafond : 
>= 8 km
>= 3000ft
5 à 8 km
1000 à 3000 ft
1500m à 5 km
500 à 1000 ft
800 à 1500m
200 à 500 ft
< 800m
< 200 ft
Symboles :   Orages  Brouillard  Fortes neiges  Fortes précipitations  Vent > 20 kt
SIGMETs :   Divers  Orages  Givrage  Turbulence  Onde Orograph.  Cendres Volcan.






- Altitude de l'aérodrome : 285 ft
- Code IATA : OZP


LEMO - Sevilla Moron

DERNIER METAR :
  • 250100Z 20006KT CAVOK 21/15 Q1010 NOSIG

METARs EXPIRÉS :
  • 250030Z 20005KT 170V230 CAVOK 21/15 Q1010 NOSIG
  • 250000Z 21006KT 170V240 CAVOK 22/14 Q1010 NOSIG
  • 242330Z 20006KT 170V230 CAVOK 22/14 Q1010 NOSIG
  • 242300Z 20006KT CAVOK 22/14 Q1010 NOSIG
  • 242230Z 24006KT 200V260 CAVOK 23/14 Q1010 NOSIG
  • 242130Z 25010KT 210V270 CAVOK 25/14 Q1010 NOSIG
  • 242100Z 24010KT 200V270 CAVOK 26/14 Q1009 NOSIG
  • 242030Z 25010KT 220V280 CAVOK 27/14 Q1009 NOSIG

TAF TAF LEMO
Valide du 24 à 21h jusqu'au 25 à 21h UTC


242000Z 2421/2521 24010KT CAVOK TX35/2515Z TN19/2505Z
BECMG 2500/2502 VRB04KT
BECMG 2516/2518 26010KT



MET'MAP, la Météo Aéronautique d'un coup d'oeil ! - Copyright ORBIFLY Décembre 2007 - Disclaimer

ORBIFLY MET'MAP TEAM :

Programmation & Développement : Alexandra Zaïnal
Sur une idée originale de : Baudouin d'Aumeries
Soutien technique & logistique : Manuel Goepfert
Assistance : Marc-Olivier Méhu




SOURCES & CREDITS :

   NOAA